createdAt,value
2019-02-17T00:02:16.864Z,99.90
2019-02-17T00:04:46.433Z,99.90
2019-02-17T00:07:15.682Z,99.90
2019-02-17T00:09:45.159Z,99.90
2019-02-17T00:12:15.163Z,99.90
2019-02-17T00:14:51.856Z,99.90
2019-02-17T00:17:24.953Z,99.90
2019-02-17T00:19:54.254Z,99.90
2019-02-17T00:22:28.034Z,99.90
2019-02-17T00:24:54.731Z,99.90
2019-02-17T00:27:23.891Z,99.90
2019-02-17T00:30:00.489Z,99.90
2019-02-17T00:32:32.760Z,99.90
2019-02-17T00:35:02.174Z,99.90
2019-02-17T00:37:31.355Z,99.90
2019-02-17T00:40:00.734Z,99.90
2019-02-17T00:42:30.096Z,99.90
2019-02-17T00:44:59.401Z,99.90
2019-02-17T00:47:28.532Z,99.90
2019-02-17T00:49:58.866Z,99.90
2019-02-17T00:52:28.258Z,99.90
2019-02-17T00:55:03.190Z,99.90
2019-02-17T00:57:32.836Z,99.90
2019-02-17T01:00:05.026Z,99.90
2019-02-17T01:02:38.175Z,99.90
2019-02-17T01:05:08.495Z,99.90
2019-02-17T01:07:38.122Z,99.90
2019-02-17T01:10:07.719Z,99.90
2019-02-17T01:12:37.404Z,99.90
2019-02-17T01:15:07.826Z,99.90
2019-02-17T01:17:37.199Z,99.90
2019-02-17T01:20:07.113Z,99.90
2019-02-17T01:22:36.522Z,99.90
2019-02-17T01:25:06.599Z,99.90
2019-02-17T01:27:36.167Z,99.90
2019-02-17T01:30:07.960Z,99.90
2019-02-17T01:32:37.773Z,99.90
2019-02-17T01:35:06.934Z,99.90
2019-02-17T01:37:44.410Z,99.90
2019-02-17T01:40:21.074Z,99.90
2019-02-17T01:42:53.598Z,99.90
2019-02-17T01:45:23.457Z,99.90
2019-02-17T01:47:54.146Z,99.90
2019-02-17T01:50:23.737Z,99.90
2019-02-17T01:52:54.058Z,99.90
2019-02-17T01:55:23.360Z,99.90
2019-02-17T01:57:52.982Z,99.90
2019-02-17T02:00:27.265Z,99.90
2019-02-17T02:02:56.614Z,99.90
2019-02-17T02:05:34.620Z,99.90
2019-02-17T02:08:03.887Z,99.90
2019-02-17T02:10:35.232Z,99.90
2019-02-17T02:13:04.379Z,99.90
2019-02-17T02:15:35.490Z,99.90
2019-02-17T02:18:04.893Z,99.90
2019-02-17T02:20:34.508Z,99.90
2019-02-17T02:23:04.197Z,99.90
2019-02-17T02:25:34.897Z,99.90
2019-02-17T02:28:03.945Z,99.90
2019-02-17T02:30:33.144Z,99.90
2019-02-17T02:33:02.545Z,99.90
2019-02-17T02:35:31.686Z,99.90
2019-02-17T02:38:00.740Z,99.90
2019-02-17T02:40:29.976Z,99.90
2019-02-17T02:42:59.190Z,99.90
2019-02-17T02:45:28.584Z,99.90
2019-02-17T02:47:57.843Z,99.90
2019-02-17T02:50:27.204Z,99.90
2019-02-17T02:53:02.282Z,99.90
2019-02-17T02:55:31.618Z,99.90
2019-02-17T02:58:13.342Z,99.90
2019-02-17T03:00:42.397Z,99.90
2019-02-17T03:03:11.701Z,99.90
2019-02-17T03:05:49.885Z,99.90
2019-02-17T03:08:26.519Z,99.90
2019-02-17T03:10:55.616Z,99.90
2019-02-17T03:13:24.885Z,99.90
2019-02-17T03:15:56.954Z,99.90
2019-02-17T03:18:29.356Z,99.90
2019-02-17T03:20:58.790Z,99.90
2019-02-17T03:23:27.916Z,99.90
2019-02-17T03:25:57.003Z,99.90
2019-02-17T03:28:26.384Z,99.90
2019-02-17T03:30:55.633Z,99.90
2019-02-17T03:33:24.783Z,99.90
2019-02-17T03:35:54.161Z,99.90
2019-02-17T03:38:23.257Z,99.90
2019-02-17T03:40:52.296Z,99.90
2019-02-17T03:43:21.413Z,99.90
2019-02-17T03:45:52.232Z,99.90
2019-02-17T03:48:21.491Z,99.90
2019-02-17T03:50:50.686Z,99.90
2019-02-17T03:53:20.008Z,99.90
2019-02-17T03:55:51.319Z,99.90
2019-02-17T03:58:20.657Z,99.90
2019-02-17T04:00:49.795Z,99.90
2019-02-17T04:03:18.843Z,99.90
2019-02-17T04:05:48.154Z,99.90
2019-02-17T04:08:17.178Z,99.90
2019-02-17T04:10:46.503Z,99.90
2019-02-17T04:13:15.708Z,99.90
2019-02-17T04:15:45.051Z,99.90
2019-02-17T04:18:14.698Z,99.90
2019-02-17T04:20:44.157Z,99.90
2019-02-17T04:23:13.562Z,99.90
2019-02-17T04:25:42.854Z,99.90
2019-02-17T04:28:12.208Z,99.90
2019-02-17T04:30:41.610Z,99.90
2019-02-17T04:33:10.838Z,99.90
2019-02-17T04:35:40.165Z,99.90
2019-02-17T04:38:09.404Z,99.90
2019-02-17T04:40:38.536Z,99.90
2019-02-17T04:43:07.836Z,99.90
2019-02-17T04:45:36.904Z,99.90
2019-02-17T04:48:06.204Z,99.90
2019-02-17T04:50:35.461Z,99.90
2019-02-17T04:53:04.592Z,99.90
2019-02-17T04:55:33.998Z,99.90
2019-02-17T04:58:03.050Z,99.90
2019-02-17T05:00:39.445Z,99.90
2019-02-17T05:03:02.929Z,99.90
2019-02-17T05:05:32.305Z,99.90
2019-02-17T05:08:01.330Z,99.90
2019-02-17T05:10:30.635Z,99.90
2019-02-17T05:13:03.667Z,99.90
2019-02-17T05:15:32.904Z,99.90
2019-02-17T05:18:07.033Z,99.90
2019-02-17T05:20:41.472Z,99.90
2019-02-17T05:23:44.194Z,99.90
2019-02-17T05:26:17.586Z,99.90
2019-02-17T05:28:57.823Z,99.90
2019-02-17T05:39:05.067Z,99.90
2019-02-17T05:41:34.160Z,99.90
2019-02-17T05:44:07.557Z,99.90
2019-02-17T05:50:15.911Z,99.90
2019-02-17T05:53:04.373Z,99.90
2019-02-17T05:58:54.419Z,99.90
2019-02-17T06:01:23.532Z,99.90
2019-02-17T06:03:52.784Z,99.90
2019-02-17T06:06:22.026Z,99.90
2019-02-17T06:09:00.902Z,99.90
2019-02-17T06:12:13.106Z,99.90
2019-02-17T06:14:48.948Z,99.90
2019-02-17T06:17:18.042Z,99.90
2019-02-17T06:19:47.050Z,99.90
2019-02-17T06:22:24.822Z,99.90
2019-02-17T06:25:18.680Z,99.90
2019-02-17T06:28:18.220Z,99.90
2019-02-17T06:30:47.207Z,99.90
2019-02-17T06:33:16.164Z,99.90
2019-02-17T06:35:45.725Z,99.90
2019-02-17T06:42:17.611Z,99.90
2019-02-17T06:44:46.582Z,99.90
2019-02-17T06:47:20.313Z,99.90
2019-02-17T06:49:49.738Z,99.90
2019-02-17T06:52:21.460Z,99.90
2019-02-17T06:55:03.670Z,99.90
2019-02-17T06:57:37.268Z,99.90
2019-02-17T07:00:26.579Z,99.90
2019-02-17T07:02:55.894Z,99.90
2019-02-17T07:05:38.044Z,99.90
2019-02-17T07:08:08.089Z,99.90
2019-02-17T07:10:37.163Z,99.90
2019-02-17T07:13:06.531Z,99.90
2019-02-17T07:15:35.755Z,99.90
2019-02-17T07:18:05.080Z,99.90
2019-02-17T07:20:34.475Z,99.90
2019-02-17T07:23:03.979Z,99.90
2019-02-17T07:25:33.241Z,99.90
2019-02-17T07:28:02.335Z,99.90
2019-02-17T07:30:31.592Z,99.90
2019-02-17T07:33:10.473Z,99.90
2019-02-17T07:35:40.283Z,99.90
2019-02-17T07:38:09.689Z,99.90
2019-02-17T07:40:38.847Z,99.90
2019-02-17T07:43:08.322Z,99.90
2019-02-17T07:45:41.761Z,99.90
2019-02-17T07:48:12.711Z,99.90
2019-02-17T07:50:41.794Z,99.90
2019-02-17T07:53:11.098Z,99.90
2019-02-17T07:55:40.624Z,99.90
2019-02-17T07:58:09.964Z,99.90
2019-02-17T08:00:39.393Z,99.90
2019-02-17T08:03:11.833Z,99.90
2019-02-17T08:05:49.142Z,99.90
2019-02-17T08:08:18.593Z,99.90
2019-02-17T08:10:48.247Z,99.90
2019-02-17T08:13:17.461Z,99.90
2019-02-17T08:15:46.587Z,99.90
2019-02-17T08:18:17.810Z,99.90
2019-02-17T08:20:46.956Z,99.90
2019-02-17T08:23:16.331Z,99.90
2019-02-17T08:25:45.621Z,99.90
2019-02-17T08:28:15.067Z,99.90
2019-02-17T08:30:45.636Z,99.90
2019-02-17T08:33:19.535Z,99.90
2019-02-17T08:35:48.802Z,99.90
2019-02-17T08:38:18.039Z,99.90
2019-02-17T08:40:48.566Z,99.90
2019-02-17T08:43:18.083Z,99.90
2019-02-17T08:45:47.343Z,99.90
2019-02-17T08:48:17.116Z,99.90
2019-02-17T08:50:46.518Z,99.90
2019-02-17T08:53:41.766Z,99.90
2019-02-17T08:56:11.227Z,99.90
2019-02-17T08:58:40.412Z,99.90
2019-02-17T09:01:10.048Z,99.90
2019-02-17T09:03:39.203Z,99.90
2019-02-17T09:06:08.376Z,99.90
2019-02-17T09:08:37.574Z,99.90
2019-02-17T09:11:06.803Z,99.90
2019-02-17T09:13:35.902Z,99.90
2019-02-17T09:16:05.228Z,99.90
2019-02-17T09:18:34.582Z,99.90
2019-02-17T09:21:03.594Z,99.90
2019-02-17T09:23:32.892Z,99.90
2019-02-17T09:26:01.880Z,99.90
2019-02-17T09:28:31.055Z,99.90
2019-02-17T09:31:00.170Z,99.90
2019-02-17T09:33:29.532Z,99.90
2019-02-17T09:35:58.801Z,99.90
2019-02-17T09:38:27.755Z,99.90
2019-02-17T09:40:57.099Z,99.90
2019-02-17T09:43:28.752Z,99.90
2019-02-17T09:45:57.878Z,99.90
2019-02-17T09:48:28.278Z,99.90
2019-02-17T09:50:57.347Z,99.90
2019-02-17T09:53:26.658Z,99.90
2019-02-17T09:55:55.725Z,96.90
2019-02-17T09:58:28.883Z,86.40
2019-02-17T10:00:57.863Z,68.40
2019-02-17T10:03:27.023Z,66.90
2019-02-17T10:05:56.118Z,59.30
2019-02-17T10:08:25.432Z,61.00
2019-02-17T10:10:54.760Z,54.10
2019-02-17T10:13:24.050Z,57.30
2019-02-17T10:16:06.564Z,59.90
2019-02-17T10:18:37.580Z,58.20
2019-02-17T10:21:06.672Z,50.30
2019-02-17T10:23:35.721Z,49.30
2019-02-17T10:26:04.672Z,46.50
2019-02-17T10:28:42.131Z,46.00
2019-02-17T10:31:04.087Z,46.40
2019-02-17T10:33:32.939Z,50.30
2019-02-17T10:36:01.911Z,49.60
2019-02-17T10:38:30.736Z,52.40
2019-02-17T10:40:59.533Z,50.40
2019-02-17T10:43:28.423Z,47.60
2019-02-17T10:45:57.271Z,48.80
2019-02-17T10:48:26.093Z,48.70
2019-02-17T10:50:55.076Z,47.60
2019-02-17T10:53:23.903Z,47.60
2019-02-17T10:55:52.793Z,45.90
2019-02-17T10:58:21.694Z,46.90
2019-02-17T11:00:50.580Z,46.60
2019-02-17T11:03:19.553Z,44.70
2019-02-17T11:05:48.442Z,45.00
2019-02-17T11:08:17.381Z,44.20
2019-02-17T11:10:46.274Z,44.00
2019-02-17T11:13:15.149Z,45.70
2019-02-17T11:15:44.143Z,48.80
2019-02-17T11:18:12.984Z,48.70
2019-02-17T11:20:42.036Z,49.60
2019-02-17T11:23:11.091Z,49.70
2019-02-17T11:25:39.924Z,50.70
2019-02-17T11:28:08.879Z,49.20
2019-02-17T11:30:37.752Z,49.50
2019-02-17T11:33:06.841Z,50.50
2019-02-17T11:35:35.751Z,49.30
2019-02-17T11:38:04.887Z,51.30
2019-02-17T11:40:33.811Z,50.40
2019-02-17T11:43:02.755Z,47.30
2019-02-17T11:45:31.771Z,44.90
2019-02-17T11:50:29.313Z,44.50
2019-02-17T11:52:58.161Z,43.30
2019-02-17T11:55:27.011Z,43.00
2019-02-17T11:57:56.827Z,41.90
2019-02-17T12:00:25.727Z,41.50
2019-02-17T12:02:54.725Z,41.20
2019-02-17T12:05:23.549Z,41.70
2019-02-17T12:07:52.491Z,43.20
2019-02-17T12:10:21.444Z,41.50
2019-02-17T12:12:51.133Z,42.20
2019-02-17T12:15:20.182Z,41.70
2019-02-17T12:17:49.159Z,41.10
2019-02-17T12:20:50.484Z,40.30
2019-02-17T12:23:27.033Z,40.80
2019-02-17T12:26:05.701Z,40.00
2019-02-17T12:28:48.018Z,39.50
2019-02-17T12:33:54.620Z,47.40
2019-02-17T12:36:23.627Z,43.00
2019-02-17T12:38:52.497Z,46.50
2019-02-17T12:41:21.441Z,47.60
2019-02-17T12:43:50.438Z,59.30
2019-02-17T12:46:19.291Z,54.60
2019-02-17T12:48:48.287Z,43.80
2019-02-17T12:51:17.266Z,43.90
2019-02-17T12:53:47.754Z,45.00
2019-02-17T12:56:16.774Z,45.30
2019-02-17T12:58:45.791Z,45.70
2019-02-17T13:01:14.695Z,46.40
2019-02-17T13:03:43.642Z,47.10
2019-02-17T13:06:12.601Z,47.40
2019-02-17T13:08:41.448Z,47.60
2019-02-17T13:11:10.367Z,49.40
2019-02-17T13:13:40.462Z,48.10
2019-02-17T13:16:19.195Z,47.00
2019-02-17T13:18:48.286Z,47.00
2019-02-17T13:21:17.146Z,46.50
2019-02-17T13:23:46.141Z,46.40
2019-02-17T13:28:44.062Z,53.90
2019-02-17T13:31:12.953Z,50.60
2019-02-17T13:33:42.115Z,50.20
2019-02-17T13:36:10.978Z,50.10
2019-02-17T13:38:39.896Z,37.50
2019-02-17T13:41:08.817Z,38.30
2019-02-17T13:43:37.648Z,38.60
2019-02-17T13:46:06.814Z,37.70
2019-02-17T13:48:35.656Z,37.90
2019-02-17T13:51:04.560Z,37.90
2019-02-17T13:53:33.700Z,37.70
2019-02-17T13:56:02.794Z,37.60
2019-02-17T13:58:31.778Z,37.50
2019-02-17T14:01:00.730Z,37.10
2019-02-17T14:03:29.594Z,36.90
2019-02-17T14:05:58.462Z,37.10
2019-02-17T14:08:27.264Z,37.50
2019-02-17T14:10:56.304Z,37.60
2019-02-17T14:13:25.276Z,37.50
2019-02-17T14:15:54.148Z,38.20
2019-02-17T14:18:23.051Z,38.10
2019-02-17T14:20:52.126Z,38.30
2019-02-17T14:23:21.105Z,38.90
2019-02-17T14:25:50.016Z,39.30
2019-02-17T14:28:18.911Z,39.10
2019-02-17T14:30:48.192Z,39.00
2019-02-17T14:33:17.280Z,39.30
2019-02-17T14:35:47.752Z,39.10
2019-02-17T14:38:17.455Z,39.50
2019-02-17T14:40:46.686Z,39.80
2019-02-17T14:43:15.890Z,40.40
2019-02-17T14:45:44.868Z,41.30
2019-02-17T14:48:14.063Z,41.40
2019-02-17T14:50:42.948Z,42.10
2019-02-17T14:53:13.565Z,43.00
2019-02-17T14:55:42.908Z,43.50
2019-02-17T14:58:11.968Z,47.80
2019-02-17T15:00:40.923Z,45.10
2019-02-17T15:03:09.808Z,46.10
2019-02-17T15:05:39.144Z,47.60
2019-02-17T15:08:08.015Z,49.10
2019-02-17T15:10:37.446Z,50.70
2019-02-17T15:13:06.536Z,52.10
2019-02-17T15:15:35.427Z,55.20
2019-02-17T15:18:04.433Z,59.50
2019-02-17T15:20:33.367Z,67.50
2019-02-17T15:23:02.196Z,73.90
2019-02-17T15:25:31.217Z,79.10
2019-02-17T15:28:00.003Z,83.20
2019-02-17T15:30:28.945Z,86.60
2019-02-17T15:33:04.190Z,90.60
2019-02-17T15:35:28.324Z,92.40
2019-02-17T15:37:57.257Z,93.90
2019-02-17T15:40:26.217Z,95.40
2019-02-17T15:42:55.237Z,97.00
2019-02-17T15:45:24.247Z,98.80
2019-02-17T15:47:53.231Z,99.60
2019-02-17T15:50:22.060Z,99.90
2019-02-17T15:52:51.054Z,99.90
2019-02-17T15:55:19.911Z,99.90
2019-02-17T15:57:49.395Z,99.90
2019-02-17T16:00:18.669Z,99.90
2019-02-17T16:02:47.536Z,99.90
2019-02-17T16:05:16.439Z,99.90
2019-02-17T16:07:45.351Z,99.90
2019-02-17T16:10:14.516Z,99.90
2019-02-17T16:12:43.453Z,99.90
2019-02-17T16:15:13.620Z,99.90
2019-02-17T16:17:42.529Z,99.90
2019-02-17T16:20:12.645Z,99.90
2019-02-17T16:22:41.573Z,99.90
2019-02-17T16:25:10.703Z,99.90
2019-02-17T16:27:39.526Z,99.90
2019-02-17T16:30:11.103Z,99.90
2019-02-17T16:32:40.027Z,99.90
2019-02-17T16:35:08.954Z,99.90
2019-02-17T16:37:37.849Z,99.90
2019-02-17T16:40:11.855Z,99.90
2019-02-17T16:42:40.775Z,99.90
2019-02-17T16:45:11.045Z,99.90
2019-02-17T16:47:40.010Z,99.90
2019-02-17T16:50:11.385Z,99.90
2019-02-17T16:52:40.233Z,99.90
2019-02-17T16:55:10.065Z,99.90
2019-02-17T16:57:39.044Z,99.90
2019-02-17T17:00:09.796Z,99.90
2019-02-17T17:02:38.821Z,99.90
2019-02-17T17:05:08.787Z,99.90
2019-02-17T17:07:37.778Z,99.90
2019-02-17T17:10:07.154Z,99.90
2019-02-17T17:12:36.179Z,99.90
2019-02-17T17:15:05.359Z,99.90
2019-02-17T17:17:34.169Z,99.90
2019-02-17T17:20:03.242Z,99.90
2019-02-17T17:22:32.204Z,99.90
2019-02-17T17:25:01.242Z,99.90
2019-02-17T17:27:30.192Z,99.90
2019-02-17T17:29:59.036Z,99.90
2019-02-17T17:32:27.955Z,99.90
2019-02-17T17:34:58.807Z,99.90
2019-02-17T17:37:27.464Z,99.90
2019-02-17T17:39:56.406Z,99.90
2019-02-17T17:42:25.263Z,99.90
2019-02-17T17:44:54.150Z,99.90
2019-02-17T17:47:23.002Z,99.90
2019-02-17T17:49:51.946Z,99.90
2019-02-17T17:52:21.108Z,99.90
2019-02-17T17:54:49.944Z,99.90
2019-02-17T17:57:18.784Z,99.90
2019-02-17T17:59:47.671Z,99.90
2019-02-17T18:02:16.493Z,99.90
2019-02-17T18:04:45.464Z,99.90
2019-02-17T18:07:14.408Z,99.90
2019-02-17T18:09:43.306Z,99.90
2019-02-17T18:12:12.168Z,99.90
2019-02-17T18:14:41.102Z,99.90
2019-02-17T18:17:10.148Z,99.90
2019-02-17T18:19:39.067Z,99.90
2019-02-17T18:22:08.012Z,99.90
2019-02-17T18:24:36.931Z,99.90
2019-02-17T18:27:05.831Z,99.90
2019-02-17T18:29:34.853Z,99.90
2019-02-17T18:32:03.887Z,99.90
2019-02-17T18:34:32.916Z,99.90
2019-02-17T18:37:02.002Z,99.90
2019-02-17T18:39:30.907Z,99.90
2019-02-17T18:41:59.815Z,99.90
2019-02-17T18:44:28.680Z,99.90
2019-02-17T18:46:57.578Z,99.90
2019-02-17T18:49:26.570Z,99.90
2019-02-17T18:51:55.623Z,99.90
2019-02-17T18:54:24.571Z,99.90
2019-02-17T18:56:53.472Z,99.90
2019-02-17T18:59:22.331Z,99.90
2019-02-17T19:01:51.290Z,99.90
2019-02-17T19:04:20.177Z,99.90
2019-02-17T19:06:49.026Z,99.90
2019-02-17T19:09:17.928Z,99.90
2019-02-17T19:11:46.745Z,99.90
2019-02-17T19:14:15.769Z,99.90
2019-02-17T19:16:44.697Z,99.90
2019-02-17T19:19:13.677Z,99.90
2019-02-17T19:21:42.692Z,99.90
2019-02-17T19:24:11.608Z,99.90
2019-02-17T19:26:40.443Z,99.90
2019-02-17T19:29:09.629Z,99.90
2019-02-17T19:31:38.650Z,99.90
2019-02-17T19:34:07.899Z,99.90
2019-02-17T19:36:36.789Z,99.90
2019-02-17T19:39:06.751Z,99.90
2019-02-17T19:41:35.769Z,99.90
2019-02-17T19:44:04.989Z,99.90
2019-02-17T19:46:33.989Z,99.90
2019-02-17T19:49:03.051Z,99.90
2019-02-17T19:51:31.943Z,99.90
2019-02-17T19:54:01.025Z,99.90
2019-02-17T19:56:30.121Z,99.90
2019-02-17T19:58:59.204Z,99.90
2019-02-17T20:01:28.199Z,99.90
2019-02-17T20:04:15.339Z,99.90
2019-02-17T20:06:44.375Z,99.90
2019-02-17T20:09:20.033Z,99.90
2019-02-17T20:11:49.165Z,99.90
2019-02-17T20:14:18.076Z,99.90
2019-02-17T20:16:47.161Z,99.90
2019-02-17T20:19:16.345Z,99.90
2019-02-17T20:21:45.371Z,99.90
2019-02-17T20:24:14.577Z,99.90
2019-02-17T20:26:43.520Z,99.90
2019-02-17T20:29:12.575Z,99.90
2019-02-17T20:31:41.671Z,99.90
2019-02-17T20:34:15.555Z,99.90
2019-02-17T20:36:45.717Z,99.90
2019-02-17T20:39:14.901Z,99.90
2019-02-17T20:41:44.111Z,99.90
2019-02-17T20:44:13.247Z,99.90
2019-02-17T20:46:42.187Z,99.90
2019-02-17T20:49:11.132Z,99.90
2019-02-17T20:51:40.307Z,99.90
2019-02-17T20:54:13.338Z,99.90
2019-02-17T20:56:42.297Z,99.90
2019-02-17T20:59:11.495Z,99.90
2019-02-17T21:01:40.463Z,99.90
2019-02-17T21:04:09.544Z,99.90
2019-02-17T21:06:41.242Z,99.90
2019-02-17T21:09:10.340Z,99.90
2019-02-17T21:11:39.578Z,99.90
2019-02-17T21:14:08.554Z,99.90
2019-02-17T21:16:37.522Z,99.90
2019-02-17T21:19:06.660Z,99.90
2019-02-17T21:21:35.801Z,99.90
2019-02-17T21:24:04.864Z,99.90
2019-02-17T21:26:33.684Z,99.90
2019-02-17T21:29:02.680Z,99.90
2019-02-17T21:31:31.560Z,99.90
2019-02-17T21:34:00.446Z,99.90
2019-02-17T21:36:29.411Z,99.90
2019-02-17T21:38:59.424Z,99.90
2019-02-17T21:41:28.644Z,99.90
2019-02-17T21:43:57.547Z,99.90
2019-02-17T21:46:26.574Z,99.90
2019-02-17T21:48:55.544Z,99.90
2019-02-17T21:51:24.581Z,99.90
2019-02-17T21:53:53.660Z,99.90
2019-02-17T21:56:22.566Z,99.90
2019-02-17T21:58:51.359Z,99.90
2019-02-17T22:01:20.228Z,99.90
2019-02-17T22:03:49.080Z,99.90
2019-02-17T22:06:18.508Z,99.90
2019-02-17T22:08:47.359Z,99.90
2019-02-17T22:11:16.326Z,99.90
2019-02-17T22:13:45.270Z,99.90
2019-02-17T22:16:14.154Z,99.90
2019-02-17T22:18:42.964Z,99.90
2019-02-17T22:21:11.876Z,99.90
2019-02-17T22:23:40.845Z,99.90
2019-02-17T22:26:09.756Z,99.90
2019-02-17T22:28:38.663Z,99.90
2019-02-17T22:31:07.661Z,99.90
2019-02-17T22:33:36.550Z,99.90
2019-02-17T22:36:05.616Z,99.90
2019-02-17T22:38:34.560Z,99.90
2019-02-17T22:41:03.438Z,99.90
2019-02-17T22:43:32.484Z,99.90
2019-02-17T22:46:01.271Z,99.90
2019-02-17T22:48:30.246Z,99.90
2019-02-17T22:50:59.208Z,99.90
2019-02-17T22:53:28.188Z,99.90
2019-02-17T22:55:57.012Z,99.90
2019-02-17T22:58:25.904Z,99.90
2019-02-17T23:00:59.504Z,99.90
2019-02-17T23:03:28.876Z,99.90
2019-02-17T23:05:57.729Z,99.90
2019-02-17T23:08:26.712Z,99.90
2019-02-17T23:10:55.659Z,99.90
2019-02-17T23:13:24.612Z,99.90
2019-02-17T23:15:53.578Z,99.90
2019-02-17T23:18:23.352Z,99.90
2019-02-17T23:20:52.328Z,99.90
2019-02-17T23:23:21.139Z,99.90
2019-02-17T23:25:49.992Z,99.90
2019-02-17T23:28:18.863Z,99.90
2019-02-17T23:30:47.830Z,99.90
2019-02-17T23:33:16.727Z,99.90
2019-02-17T23:35:45.588Z,99.90
2019-02-17T23:38:14.552Z,99.90
2019-02-17T23:40:43.420Z,99.90
2019-02-17T23:43:12.212Z,99.90
2019-02-17T23:45:41.185Z,99.90
2019-02-17T23:48:10.112Z,99.90
2019-02-17T23:50:38.987Z,99.90
2019-02-17T23:53:07.830Z,99.90
2019-02-17T23:55:36.642Z,99.90
2019-02-17T23:58:05.574Z,99.90
